SBTT/TBT METAR and TAF weather

Enter ICAO airport designator
Station Type Date Time Source
SBTT METAR 2022/06/27 17:00 UTC NOAA

SBTT 271700Z 28003KT 9999 BKN012 SCT017 26/23 Q1014


Station Type Date Time Source
SBTT Decoded METAR 2022/06/27 17:00 UTC NOAA

Tabatinga, Brazil (SBTT) 03-40S 069-40W
Jun 27, 2022 - 01:00 PM EDT / 2022.06.27 1700 UTC
Wind: from the W (280 degrees) at 3 MPH (3 KT):0
Visibility: greater than 7 mile(s):0
Sky conditions: mostly cloudy
Temperature: 78 F (26 C)
Dew Point: 73 F (23 C)
Relative Humidity: 83%
Pressure (altimeter): 29.94 in. Hg (1014 hPa)
ob: SBTT 271700Z 28003KT 9999 BKN012 SCT017 26/23 Q1014
cycle: 17

Station Type Date Time Source
SBTT TAF 2022/06/27 18:07 UTC NOAA

TAF SBTT 271600Z 2718/2818 33005KT 7000 SCT020 TN22/2808Z TX31/2818Z
BECMG 2718/2721 14005KT
BECMG 2800/2802 02002KT
BECMG 2812/2814 05005KT
RMK PGW

Example: see airport list